Time;durP1;ratioP1;P1;durP2;ratioP2;P2;SDS_P1;SDS_P2;PMS_P1;PMS_P2;Temp;Humidity;BMP_temperature;BMP_pressure;BME280_temperature;BME280_humidity;BME280_pressure;Samples;Min_cycle;Max_cycle;Signal;HPM_P1;HPM_P2
2024/01/15 00:01:44;;;;;;;17.40;11.10;;;;;;;-8.58;100.00;140198.72;107101;1266;25344;-56
2024/01/15 00:04:30;;;;;;;19.20;11.60;;;;;;;-8.56;100.00;140205.13;107057;1266;25353;-56
2024/01/15 00:07:15;;;;;;;18.70;11.30;;;;;;;-8.53;100.00;140212.77;107079;1260;23189;-59
2024/01/15 00:10:02;;;;;;;20.10;11.00;;;;;;;-8.48;100.00;140223.86;107098;1267;25347;-55
2024/01/15 00:12:47;;;;;;;16.00;10.10;;;;;;;-8.41;100.00;140239.88;107104;1266;25353;-59
2024/01/15 00:15:32;;;;;;;16.60;10.10;;;;;;;-8.37;100.00;140250.22;107045;1267;25402;-59
2024/01/15 00:18:18;;;;;;;16.90;9.70;;;;;;;-8.35;100.00;140254.63;107101;1263;25490;-60
2024/01/15 00:21:04;;;;;;;16.60;10.50;;;;;;;-8.35;100.00;140255.41;107141;1264;25379;-59
2024/01/15 00:23:49;;;;;;;18.60;10.60;;;;;;;-8.42;100.00;140236.69;107153;1263;22549;-56
2024/01/15 00:26:35;;;;;;;17.90;11.40;;;;;;;-8.46;100.00;140227.08;107087;1266;25411;-58
2024/01/15 00:29:20;;;;;;;15.30;9.70;;;;;;;-8.46;100.00;140228.78;107023;1267;25406;-55
2024/01/15 00:32:05;;;;;;;18.20;11.30;;;;;;;-8.47;100.00;140226.34;107139;1267;25344;-56
2024/01/15 00:34:51;;;;;;;17.90;10.80;;;;;;;-8.48;100.00;140222.38;107094;1265;25372;-53
2024/01/15 00:37:37;;;;;;;17.40;10.50;;;;;;;-8.48;100.00;140222.38;107048;1264;25481;-56
2024/01/15 00:40:22;;;;;;;21.10;10.70;;;;;;;-8.50;100.00;140217.94;107060;1263;23111;-61
2024/01/15 00:43:08;;;;;;;18.00;10.50;;;;;;;-8.53;100.00;140212.03;107049;1266;25401;-60
2024/01/15 00:45:54;;;;;;;17.50;11.80;;;;;;;-8.56;100.00;140204.14;107047;1266;25439;-56
2024/01/15 00:48:39;;;;;;;19.40;11.70;;;;;;;-8.59;100.00;140197.22;107034;1266;25418;-55
2024/01/15 00:51:25;;;;;;;19.10;11.90;;;;;;;-8.57;100.00;140201.92;107107;1263;25356;-55
2024/01/15 00:54:11;;;;;;;16.80;10.90;;;;;;;-8.54;100.00;140209.34;107118;1260;22543;-57
2024/01/15 00:56:56;;;;;;;21.20;12.20;;;;;;;-8.56;100.00;140203.89;107099;1261;25348;-57
2024/01/15 00:59:42;;;;;;;18.20;11.20;;;;;;;-8.57;100.00;140203.64;107052;1274;25484;-56
2024/01/15 01:02:28;;;;;;;19.50;11.10;;;;;;;-8.54;100.00;140209.80;107116;1266;25396;-60
2024/01/15 01:05:13;;;;;;;22.70;13.40;;;;;;;-8.54;100.00;140209.31;107107;1266;25357;-58
2024/01/15 01:07:59;;;;;;;16.60;10.00;;;;;;;-8.55;100.00;140207.36;107078;1264;25418;-58
2024/01/15 01:10:45;;;;;;;18.20;10.00;;;;;;;-8.55;100.00;140208.09;107021;1264;25481;-57
2024/01/15 01:13:30;;;;;;;19.70;10.60;;;;;;;-8.54;100.00;140210.55;107148;1272;25352;-57
2024/01/15 01:16:16;;;;;;;19.10;11.20;;;;;;;-8.55;100.00;140207.59;107067;1263;25393;-59
2024/01/15 01:19:02;;;;;;;20.20;12.10;;;;;;;-8.60;100.00;140194.53;107057;1254;23351;-63
2024/01/15 01:21:48;;;;;;;20.50;11.40;;;;;;;-8.63;100.00;140187.13;107053;1266;23273;-58
2024/01/15 01:24:34;;;;;;;21.60;11.90;;;;;;;-8.66;100.00;140179.23;106859;1254;25344;-60
2024/01/15 01:27:20;;;;;;;20.10;12.70;;;;;;;-8.64;100.00;140183.67;107114;1262;25482;-55
2024/01/15 01:30:06;;;;;;;24.00;12.90;;;;;;;-8.61;100.00;140193.30;107099;1263;25364;-61
2024/01/15 01:32:52;;;;;;;21.50;11.80;;;;;;;-8.59;100.00;140196.72;107082;1266;25998;-59
2024/01/15 01:35:37;;;;;;;27.00;14.20;;;;;;;-8.63;100.00;140186.64;107152;1264;25363;-61
2024/01/15 01:38:23;;;;;;;23.00;11.70;;;;;;;-8.70;100.00;140170.11;107107;1259;22519;-60
2024/01/15 01:41:10;;;;;;;19.60;11.90;;;;;;;-8.73;100.00;140163.47;107065;1266;25421;-58
2024/01/15 01:43:56;;;;;;;19.60;11.30;;;;;;;-8.73;100.00;140163.69;107094;1264;25497;-56
2024/01/15 01:46:43;;;;;;;23.80;12.30;;;;;;;-8.74;100.00;140162.22;107157;1264;25449;-56
2024/01/15 01:49:29;;;;;;;17.70;11.50;;;;;;;-8.73;100.00;140164.19;107101;1266;25344;-56
2024/01/15 01:52:15;;;;;;;20.70;11.50;;;;;;;-8.73;100.00;140162.97;107073;1264;25335;-57
2024/01/15 01:55:03;;;;;;;20.20;11.50;;;;;;;-8.78;100.00;140152.09;107113;1266;25519;-59
2024/01/15 01:57:49;;;;;;;21.40;13.40;;;;;;;-8.81;100.00;140142.97;107089;1266;25392;-58
2024/01/15 02:00:36;;;;;;;22.90;11.70;;;;;;;-8.85;100.00;140134.61;107027;1265;25402;-56
2024/01/15 02:03:22;;;;;;;20.50;11.60;;;;;;;-8.90;100.00;140121.28;107125;1264;25452;-58
2024/01/15 02:06:08;;;;;;;23.40;12.00;;;;;;;-8.97;100.00;140106.97;106981;1263;25498;-59
2024/01/15 02:08:55;;;;;;;24.90;13.00;;;;;;;-9.00;100.00;140099.86;107175;1263;22612;-56
2024/01/15 02:11:42;;;;;;;20.80;12.50;;;;;;;-8.97;100.00;140107.22;107086;1264;25362;-58
2024/01/15 02:14:27;;;;;;;20.40;12.00;;;;;;;-8.98;100.00;140104.06;107097;1269;25396;-57
2024/01/15 02:17:13;;;;;;;23.70;12.10;;;;;;;-8.94;100.00;140111.42;107078;1265;25374;-55
2024/01/15 02:19:58;;;;;;;23.20;11.50;;;;;;;-8.93;100.00;140113.64;107031;1266;25504;-58
2024/01/15 02:22:44;;;;;;;20.40;12.00;;;;;;;-8.93;100.00;140114.14;107074;1263;25836;-57
2024/01/15 02:25:29;;;;;;;20.90;10.90;;;;;;;-8.98;100.00;140104.03;107115;1267;25345;-59
2024/01/15 02:28:16;;;;;;;22.40;11.10;;;;;;;-8.98;100.00;140102.81;107071;1263;25353;-58
2024/01/15 02:31:02;;;;;;;18.30;10.90;;;;;;;-8.98;100.00;140104.30;107191;1264;25274;-56
2024/01/15 02:33:48;;;;;;;21.20;11.70;;;;;;;-8.94;100.00;140112.17;107118;1266;25372;-56
2024/01/15 02:36:34;;;;;;;20.00;11.00;;;;;;;-8.89;100.00;140123.03;107149;1263;25514;-59
2024/01/15 02:39:19;;;;;;;21.50;11.20;;;;;;;-8.90;100.00;140122.02;107121;1266;25382;-56
2024/01/15 02:42:05;;;;;;;23.70;13.30;;;;;;;-8.89;100.00;140124.50;107108;1261;25535;-57
2024/01/15 02:44:51;;;;;;;20.10;11.80;;;;;;;-8.89;100.00;140124.50;107136;1266;25453;-57
2024/01/15 02:47:36;;;;;;;22.10;12.20;;;;;;;-8.89;100.00;140123.02;107062;1263;25433;-58
2024/01/15 02:50:22;;;;;;;22.10;12.60;;;;;;;-8.94;100.00;140111.70;107035;1262;22688;-56
2024/01/15 02:53:07;;;;;;;20.70;11.20;;;;;;;-8.95;100.00;140109.95;107066;1263;25486;-59
2024/01/15 02:55:53;;;;;;;17.90;10.70;;;;;;;-8.92;100.00;140117.09;107065;1263;25372;-59
2024/01/15 02:58:39;;;;;;;17.50;10.50;;;;;;;-8.90;100.00;140122.27;107081;1261;25345;-55
2024/01/15 03:01:24;;;;;;;17.80;11.20;;;;;;;-8.89;100.00;140123.50;107070;1264;25424;-57
2024/01/15 03:04:09;;;;;;;18.50;10.80;;;;;;;-8.90;100.00;140120.53;107111;1266;25338;-60
2024/01/15 03:06:55;;;;;;;17.80;11.50;;;;;;;-8.92;100.00;140116.59;107094;1264;24220;-59
2024/01/15 03:09:41;;;;;;;17.40;10.90;;;;;;;-8.93;100.00;140114.14;107057;1266;25484;-56
2024/01/15 03:12:27;;;;;;;20.30;10.70;;;;;;;-8.97;100.00;140106.98;107121;1266;25362;-58
2024/01/15 03:15:12;;;;;;;19.50;11.60;;;;;;;-8.98;100.00;140102.55;107061;1266;25350;-59
2024/01/15 03:17:58;;;;;;;20.80;11.50;;;;;;;-9.01;100.00;140096.14;107066;1269;22576;-57
2024/01/15 03:20:44;;;;;;;17.40;10.50;;;;;;;-9.00;100.00;140099.61;107081;1267;25408;-58
2024/01/15 03:23:30;;;;;;;19.90;12.30;;;;;;;-8.96;100.00;140108.45;107125;1266;25474;-57
2024/01/15 03:26:15;;;;;;;18.10;11.40;;;;;;;-8.94;100.00;140112.41;107161;1266;25459;-59
2024/01/15 03:29:01;;;;;;;18.00;11.20;;;;;;;-8.96;100.00;140107.72;107355;1264;25378;-58
2024/01/15 03:31:46;;;;;;;17.90;10.80;;;;;;;-8.99;100.00;140100.34;107301;1264;25403;-60
2024/01/15 03:34:32;;;;;;;19.60;11.80;;;;;;;-9.02;100.00;140094.67;107128;1263;23235;-57
2024/01/15 03:37:18;;;;;;;18.50;11.60;;;;;;;-9.04;100.00;140088.53;107158;1263;22519;-60
2024/01/15 03:40:04;;;;;;;17.40;10.80;;;;;;;-9.09;100.00;140077.67;107073;1265;25375;-60
2024/01/15 03:42:51;;;;;;;18.90;10.50;;;;;;;-9.16;100.00;140059.20;107052;1265;25347;-58
2024/01/15 03:45:36;;;;;;;19.00;10.10;;;;;;;-9.24;100.00;140039.70;107092;1262;25433;-59
2024/01/15 03:48:22;;;;;;;19.00;10.80;;;;;;;-9.33;100.00;140018.03;107102;1263;25353;-56
2024/01/15 03:51:07;;;;;;;18.70;11.20;;;;;;;-9.40;100.00;140002.77;107127;1264;22771;-56
2024/01/15 03:53:53;;;;;;;20.20;12.30;;;;;;;-9.45;100.00;139990.92;107042;1266;25347;-57
2024/01/15 03:56:39;;;;;;;20.60;11.70;;;;;;;-9.52;100.00;139974.17;107072;1266;25377;-59
2024/01/15 03:59:24;;;;;;;20.80;12.20;;;;;;;-9.59;100.00;139955.70;107101;1264;25482;-55
2024/01/15 04:02:10;;;;;;;21.80;11.70;;;;;;;-9.65;100.00;139942.66;107155;1264;25373;-55
2024/01/15 04:04:56;;;;;;;20.60;11.70;;;;;;;-9.69;100.00;139930.80;107086;1266;25355;-55
2024/01/15 04:07:41;;;;;;;21.50;12.30;;;;;;;-9.75;100.00;139916.03;107086;1272;25372;-59
2024/01/15 04:10:27;;;;;;;22.00;11.50;;;;;;;-9.82;100.00;139899.78;107115;1270;25418;-55
2024/01/15 04:13:12;;;;;;;19.60;10.60;;;;;;;-9.88;100.00;139886.97;107109;1264;25344;-56
2024/01/15 04:15:58;;;;;;;20.10;11.30;;;;;;;-9.91;100.00;139879.84;107131;1260;25398;-54
2024/01/15 04:18:43;;;;;;;18.10;10.90;;;;;;;-9.93;100.00;139873.42;107048;1262;25522;-58
2024/01/15 04:21:29;;;;;;;19.50;12.20;;;;;;;-9.93;100.00;139873.92;107078;1266;25796;-57
2024/01/15 04:24:14;;;;;;;21.70;11.80;;;;;;;-9.93;100.00;139873.91;107075;1263;25361;-55
2024/01/15 04:27:00;;;;;;;19.50;11.60;;;;;;;-9.93;100.00;139874.41;107090;1269;25366;-57
2024/01/15 04:29:46;;;;;;;21.40;11.90;;;;;;;-9.92;100.00;139876.13;107127;1265;25564;-59
2024/01/15 04:32:31;;;;;;;19.70;12.30;;;;;;;-9.93;100.00;139874.42;107125;1263;25424;-56
2024/01/15 04:35:17;;;;;;;19.60;11.60;;;;;;;-9.93;100.00;139875.16;107134;1264;22538;-58
2024/01/15 04:38:03;;;;;;;24.10;12.00;;;;;;;-9.91;100.00;139879.34;107132;1262;25242;-54
2024/01/15 04:40:48;;;;;;;22.60;12.10;;;;;;;-9.91;100.00;139880.06;107072;1263;25457;-58
2024/01/15 04:43:34;;;;;;;20.30;11.40;;;;;;;-9.91;100.00;139879.34;106893;1265;25492;-58
2024/01/15 04:46:19;;;;;;;22.30;12.10;;;;;;;-9.94;100.00;139871.70;107146;1275;25334;-55
2024/01/15 04:49:05;;;;;;;24.20;13.80;;;;;;;-10.00;100.00;139857.16;107379;1266;25575;-53
2024/01/15 04:51:50;;;;;;;23.70;14.40;;;;;;;-10.03;100.00;139849.28;107245;1266;25497;-56
2024/01/15 04:54:36;;;;;;;26.70;12.60;;;;;;;-10.04;100.00;139848.80;107059;1261;25375;-58
2024/01/15 04:57:22;;;;;;;26.80;14.50;;;;;;;-10.02;100.00;139853.25;107078;1266;25420;-56
2024/01/15 05:00:08;;;;;;;25.10;14.00;;;;;;;-9.96;100.00;139867.77;107087;1263;25344;-54
2024/01/15 05:02:54;;;;;;;24.60;14.10;;;;;;;-9.89;100.00;139885.23;107176;1259;24665;-58
2024/01/15 05:05:39;;;;;;;27.20;14.70;;;;;;;-9.86;100.00;139891.67;107124;1263;25696;-55
2024/01/15 05:08:25;;;;;;;29.40;16.10;;;;;;;-9.85;100.00;139894.09;107116;1266;25418;-56
2024/01/15 05:11:11;;;;;;;27.40;15.60;;;;;;;-9.85;100.00;139894.59;107114;1263;25362;-56
2024/01/15 05:13:56;;;;;;;25.10;14.60;;;;;;;-9.85;100.00;139894.59;107140;1264;22526;-55
2024/01/15 05:16:51;;;;;;;27.40;14.40;;;;;;;-9.84;100.00;139897.83;107092;1263;25345;-56
2024/01/15 05:19:37;;;;;;;26.40;14.70;;;;;;;-9.79;100.00;139906.44;107163;1263;25443;-55
2024/01/15 05:22:24;;;;;;;24.30;13.10;;;;;;;-9.78;100.00;139910.36;107177;1266;25446;-56
2024/01/15 05:25:09;;;;;;;28.70;15.40;;;;;;;-9.79;100.00;139906.67;107147;1266;25497;-58
2024/01/15 05:27:55;;;;;;;25.00;14.10;;;;;;;-9.84;100.00;139896.09;107040;1263;25348;-54
2024/01/15 05:30:41;;;;;;;26.40;14.90;;;;;;;-9.88;100.00;139886.72;107106;1266;25351;-59
2024/01/15 05:33:27;;;;;;;25.80;15.50;;;;;;;-9.92;100.00;139875.64;107125;1254;99116;-56
2024/01/15 05:36:13;;;;;;;26.20;13.90;;;;;;;-9.95;100.00;139869.00;107079;1266;25506;-54
2024/01/15 05:38:58;;;;;;;24.00;14.40;;;;;;;-9.96;100.00;139866.80;107133;1265;25396;-53
2024/01/15 05:41:43;;;;;;;27.10;15.20;;;;;;;-9.95;100.00;139869.73;107105;1265;25463;-55
2024/01/15 05:44:29;;;;;;;23.10;13.60;;;;;;;-9.92;100.00;139877.86;107113;1266;25839;-52
2024/01/15 05:47:15;;;;;;;25.50;13.50;;;;;;;-9.89;100.00;139884.50;107024;1263;25421;-58
2024/01/15 05:50:02;;;;;;;24.40;14.00;;;;;;;-9.85;100.00;139895.34;107125;1266;23377;-58
2024/01/15 05:52:48;;;;;;;23.90;12.00;;;;;;;-9.82;100.00;139900.77;107074;1266;25347;-56
2024/01/15 05:55:35;;;;;;;26.00;14.90;;;;;;;-9.81;100.00;139902.98;107006;1263;25392;-58
2024/01/15 05:58:21;;;;;;;24.20;14.80;;;;;;;-9.79;100.00;139906.67;107111;1266;25347;-56
2024/01/15 06:01:07;;;;;;;33.90;16.00;;;;;;;-9.80;100.00;139904.47;107165;1266;25698;-56
2024/01/15 06:03:53;;;;;;;27.50;15.20;;;;;;;-9.80;100.00;139905.20;107098;1266;23938;-56
2024/01/15 06:06:39;;;;;;;26.30;14.70;;;;;;;-9.76;100.00;139914.30;107091;1263;24513;-57
2024/01/15 06:09:25;;;;;;;30.40;15.60;;;;;;;-9.72;100.00;139925.16;107053;1266;25372;-56
2024/01/15 06:12:11;;;;;;;26.30;15.00;;;;;;;-9.67;100.00;139936.48;107057;1261;25396;-58
2024/01/15 06:14:57;;;;;;;26.70;15.30;;;;;;;-9.64;100.00;139943.84;107041;1266;25338;-57
2024/01/15 06:17:43;;;;;;;33.50;15.70;;;;;;;-9.62;100.00;139948.78;107089;1266;25411;-56
2024/01/15 06:20:29;;;;;;;27.50;15.20;;;;;;;-9.61;100.00;139951.53;107114;1266;25430;-53
2024/01/15 06:23:14;;;;;;;27.90;15.40;;;;;;;-9.60;100.00;139953.25;107124;1266;25335;-58
2024/01/15 06:26:03;;;;;;;26.70;14.40;;;;;;;-9.59;100.00;139955.45;107163;1263;25386;-57
2024/01/15 06:28:48;;;;;;;29.00;15.30;;;;;;;-9.57;100.00;139960.13;107155;1266;25424;-55
2024/01/15 06:31:34;;;;;;;27.40;14.60;;;;;;;-9.54;100.00;139968.78;107078;1260;25449;-56
2024/01/15 06:34:19;;;;;;;27.70;15.20;;;;;;;-9.50;100.00;139978.84;107079;1256;25366;-57
2024/01/15 06:37:05;;;;;;;24.10;14.60;;;;;;;-9.45;100.00;139990.42;107109;1266;23424;-59
2024/01/15 06:39:51;;;;;;;29.30;14.60;;;;;;;-9.40;100.00;140001.78;107146;1266;25375;-56
2024/01/15 06:42:37;;;;;;;28.30;15.70;;;;;;;-9.36;100.00;140011.38;107107;1263;22524;-57
2024/01/15 06:45:22;;;;;;;35.30;16.80;;;;;;;-9.36;100.00;140012.11;107251;1269;25372;-55
2024/01/15 06:48:08;;;;;;;31.50;16.90;;;;;;;-9.34;100.00;140014.83;107154;1263;25424;-54
2024/01/15 06:50:54;;;;;;;35.30;18.30;;;;;;;-9.33;100.00;140016.81;107156;1266;23971;-58
2024/01/15 06:53:39;;;;;;;29.60;16.10;;;;;;;-9.33;100.00;140017.53;107131;1260;25430;-54
2024/01/15 06:56:24;;;;;;;26.90;14.80;;;;;;;-9.30;100.00;140025.91;107091;1264;25414;-59
2024/01/15 06:59:10;;;;;;;31.70;18.20;;;;;;;-9.25;100.00;140037.97;107114;1260;25362;-57
2024/01/15 07:01:55;;;;;;;27.30;16.80;;;;;;;-9.19;100.00;140051.78;107278;1263;25465;-53
2024/01/15 07:04:41;;;;;;;29.90;17.00;;;;;;;-9.16;100.00;140059.44;107106;1266;25481;-57
2024/01/15 07:07:29;;;;;;;31.50;17.10;;;;;;;-9.16;100.00;140059.17;107086;1256;25465;-54
2024/01/15 07:10:16;;;;;;;31.10;16.00;;;;;;;-9.16;100.00;140058.67;107186;1253;25354;-57
2024/01/15 07:13:02;;;;;;;29.10;15.90;;;;;;;-9.15;100.00;140062.88;107379;1266;25375;-57
2024/01/15 07:15:48;;;;;;;25.40;14.30;;;;;;;-9.13;100.00;140065.58;107271;1266;22530;-64
2024/01/15 07:18:33;;;;;;;22.20;13.80;;;;;;;-9.13;100.00;140065.84;107266;1270;25419;-57
2024/01/15 07:21:19;;;;;;;26.00;15.10;;;;;;;-9.11;100.00;140070.27;107244;1266;25359;-54
2024/01/15 07:24:05;;;;;;;31.40;16.20;;;;;;;-9.11;100.00;140070.53;107137;1270;25344;-54
2024/01/15 07:26:50;;;;;;;26.70;15.60;;;;;;;-9.08;100.00;140079.64;107156;1265;25497;-54
2024/01/15 07:29:37;;;;;;;28.40;16.10;;;;;;;-9.05;100.00;140087.53;107124;1266;22541;-54
2024/01/15 07:32:23;;;;;;;40.20;18.60;;;;;;;-9.05;100.00;140087.03;107500;1259;25481;-58
2024/01/15 07:35:09;;;;;;;30.10;16.40;;;;;;;-9.07;100.00;140082.09;107256;1266;25328;-55
2024/01/15 07:37:55;;;;;;;29.60;15.60;;;;;;;-9.04;100.00;140088.25;107127;1265;22651;-59
2024/01/15 07:40:41;;;;;;;27.30;15.20;;;;;;;-9.01;100.00;140095.41;107113;1266;25523;-57
2024/01/15 07:43:27;;;;;;;28.60;16.10;;;;;;;-8.95;100.00;140110.67;107113;1266;25518;-56
2024/01/15 07:46:13;;;;;;;32.20;17.70;;;;;;;-8.87;100.00;140128.20;107166;1264;25399;-59
2024/01/15 07:48:59;;;;;;;35.60;19.00;;;;;;;-8.84;100.00;140136.08;107146;1266;25424;-55
2024/01/15 07:51:45;;;;;;;34.50;19.00;;;;;;;-8.82;100.00;140141.28;107097;1275;25347;-58
2024/01/15 07:54:32;;;;;;;30.10;15.90;;;;;;;-8.81;100.00;140144.47;107173;1259;25395;-58
2024/01/15 07:57:18;;;;;;;32.00;16.40;;;;;;;-8.79;100.00;140148.41;108087;1260;23102;-59
2024/01/15 08:00:05;;;;;;;28.00;16.60;;;;;;;-8.74;100.00;140161.47;107383;1263;22464;-60
2024/01/15 08:02:51;;;;;;;34.00;17.50;;;;;;;-8.66;100.00;140179.97;107216;1270;22527;-60
2024/01/15 08:05:36;;;;;;;37.20;18.10;;;;;;;-8.60;100.00;140195.53;107281;1263;22583;-56
2024/01/15 08:08:23;;;;;;;31.80;16.20;;;;;;;-8.56;100.00;140204.38;107768;1257;25445;-59
2024/01/15 08:11:08;;;;;;;32.70;15.80;;;;;;;-8.51;100.00;140215.73;107374;1260;25401;-58
2024/01/15 08:13:54;;;;;;;29.60;15.60;;;;;;;-8.50;100.00;140217.20;107529;1260;25427;-64
2024/01/15 08:16:40;;;;;;;35.00;16.40;;;;;;;-8.52;100.00;140214.47;107567;1256;26859;-58
2024/01/15 08:19:25;;;;;;;29.90;16.10;;;;;;;-8.53;100.00;140212.03;107550;1261;25417;-61
2024/01/15 08:22:11;;;;;;;28.60;15.80;;;;;;;-8.53;100.00;140212.03;107708;1263;23395;-59
2024/01/15 08:24:57;;;;;;;29.40;15.80;;;;;;;-8.51;100.00;140216.97;107780;1260;22546;-57
2024/01/15 08:27:43;;;;;;;29.50;15.90;;;;;;;-8.47;100.00;140226.33;107677;1263;22525;-58
2024/01/15 08:30:29;;;;;;;27.30;14.90;;;;;;;-8.43;100.00;140235.45;107440;1260;25362;-61
2024/01/15 08:33:15;;;;;;;28.40;16.30;;;;;;;-8.36;100.00;140251.45;107721;1263;22396;-62
2024/01/15 08:36:09;;;;;;;28.30;16.40;;;;;;;-8.33;100.00;140259.58;107540;1266;22718;-59
2024/01/15 08:38:55;;;;;;;29.80;16.50;;;;;;;-8.33;100.00;140261.31;107652;1256;26558;-59
2024/01/15 08:41:40;;;;;;;29.00;15.90;;;;;;;-8.31;100.00;140265.50;107451;1263;23436;-73
2024/01/15 08:44:26;;;;;;;28.30;16.20;;;;;;;-8.30;100.00;140267.22;107185;1263;25409;-59
2024/01/15 08:47:12;;;;;;;32.00;15.40;;;;;;;-8.30;100.00;140267.70;107374;1266;25344;-58
2024/01/15 08:49:59;;;;;;;27.50;16.10;;;;;;;-8.30;100.00;140266.72;107631;1259;25574;-61
2024/01/15 08:52:46;;;;;;;31.10;15.90;;;;;;;-8.31;100.00;140264.25;107388;1256;26716;-65
2024/01/15 08:55:32;;;;;;;24.90;14.20;;;;;;;-8.27;100.00;140272.89;107735;1263;22218;-61
2024/01/15 08:58:18;;;;;;;32.80;14.80;;;;;;;-8.27;100.00;140274.13;107382;1259;25421;-61
2024/01/15 09:01:04;;;;;;;34.60;17.40;;;;;;;-8.30;100.00;140267.72;107356;1256;25353;-62
2024/01/15 09:03:50;;;;;;;33.00;17.40;;;;;;;-8.26;100.00;140276.83;107744;1257;23405;-60
2024/01/15 09:06:36;;;;;;;28.70;16.20;;;;;;;-8.27;100.00;140272.89;108031;1260;24240;-59
2024/01/15 09:09:22;;;;;;;27.40;16.00;;;;;;;-8.26;100.00;140275.34;107754;1259;25324;-64
2024/01/15 09:12:08;;;;;;;25.70;15.00;;;;;;;-8.22;100.00;140285.47;107739;1263;25487;-63
2024/01/15 09:14:54;;;;;;;27.70;15.20;;;;;;;-8.18;100.00;140295.34;108047;1259;23298;-60
2024/01/15 09:17:39;;;;;;;23.70;13.40;;;;;;;-8.17;100.00;140298.31;107773;1263;25408;-57
2024/01/15 09:20:27;;;;;;;24.30;14.90;;;;;;;-8.17;100.00;140298.56;108375;1260;22523;-62
2024/01/15 09:23:13;;;;;;;26.50;14.70;;;;;;;-8.14;100.00;140305.45;107561;1259;23146;-60
2024/01/15 09:25:59;;;;;;;28.30;13.80;;;;;;;-8.12;100.00;140309.63;107612;1262;25372;-62
2024/01/15 09:28:44;;;;;;;27.50;14.60;;;;;;;-8.09;100.00;140317.03;107708;1259;24262;-63
2024/01/15 09:31:30;;;;;;;31.00;15.80;;;;;;;-8.02;100.00;140334.33;107321;1263;22551;-59
2024/01/15 09:34:18;;;;;;;32.40;16.40;;;;;;;-7.96;100.00;140349.63;107724;1259;23344;-63
2024/01/15 09:37:05;;;;;;;31.90;15.70;;;;;;;-7.87;100.00;140371.09;107493;1261;25348;-62
2024/01/15 09:39:50;;;;;;;28.90;15.70;;;;;;;-7.80;100.00;140387.14;107744;1260;22818;-61
2024/01/15 09:42:37;;;;;;;30.10;15.70;;;;;;;-7.77;100.00;140394.53;107512;1263;25494;-65
2024/01/15 09:45:23;;;;;;;30.20;14.90;;;;;;;-7.75;100.00;140400.19;107975;1263;22784;-59
2024/01/15 09:48:09;;;;;;;31.10;16.30;;;;;;;-7.73;100.00;140403.66;107722;1256;25424;-62
2024/01/15 09:50:58;;;;;;;30.70;15.60;;;;;;;-7.71;100.00;140408.59;107456;1256;25468;-64
2024/01/15 09:53:46;;;;;;;32.20;16.50;;;;;;;-7.69;100.00;140415.28;107777;1260;22911;-62
2024/01/15 09:56:32;;;;;;;25.20;13.70;;;;;;;-7.65;100.00;140423.17;107523;1256;24665;-61
2024/01/15 09:59:19;;;;;;;27.70;13.40;;;;;;;-7.59;100.00;140436.25;106954;1269;25396;-61
2024/01/15 10:02:06;;;;;;;27.20;13.90;;;;;;;-7.58;100.00;140440.45;107932;1266;22598;-60
2024/01/15 10:04:52;;;;;;;24.30;13.50;;;;;;;-7.57;100.00;140441.91;107291;1272;22992;-60
2024/01/15 10:07:39;;;;;;;28.80;14.70;;;;;;;-7.55;92.77;140446.13;106932;1275;25497;-61
2024/01/15 10:10:26;;;;;;;25.70;13.90;;;;;;;-7.56;85.98;140445.63;106926;1257;25354;-60
2024/01/15 10:13:13;;;;;;;24.20;14.40;;;;;;;-7.54;85.63;140450.80;106900;1266;25584;-63
2024/01/15 10:16:02;;;;;;;23.20;11.80;;;;;;;-7.52;85.55;140455.23;106940;1266;25328;-59
2024/01/15 10:18:49;;;;;;;24.80;12.60;;;;;;;-7.48;85.51;140463.64;107055;1259;25335;-60
2024/01/15 10:21:36;;;;;;;26.50;14.70;;;;;;;-7.47;85.26;140468.08;106948;1266;25490;-64
2024/01/15 10:24:22;;;;;;;24.70;14.50;;;;;;;-7.47;84.91;140468.08;106918;1275;25334;-64
2024/01/15 10:27:09;;;;;;;22.50;13.60;;;;;;;-7.44;85.01;140473.52;106944;1259;25420;-62
2024/01/15 10:30:00;;;;;;;26.10;14.30;;;;;;;-7.43;84.90;140475.72;106958;1275;25501;-58
2024/01/15 10:33:01;;;;;;;25.20;13.80;;;;;;;-7.43;85.07;140477.45;106952;1266;25484;-61
2024/01/15 10:35:47;;;;;;;23.30;13.20;;;;;;;-7.45;84.69;140473.28;106935;1275;25376;-65
2024/01/15 10:38:33;;;;;;;26.80;14.00;;;;;;;-7.47;84.77;140466.84;106938;1256;25350;-64
2024/01/15 10:41:19;;;;;;;26.20;14.40;;;;;;;-7.49;84.48;140462.66;106941;1275;25348;-60
2024/01/15 10:44:05;;;;;;;26.50;13.60;;;;;;;-7.53;84.62;140452.03;106899;1259;25450;-61
2024/01/15 10:46:51;;;;;;;26.20;14.10;;;;;;;-7.57;84.77;140443.66;106923;1259;25380;-65
2024/01/15 10:49:37;;;;;;;24.10;13.60;;;;;;;-7.60;84.91;140434.52;107094;1260;25424;-57
2024/01/15 10:52:23;;;;;;;29.40;14.50;;;;;;;-7.74;84.98;140402.17;106926;1259;24127;-62
2024/01/15 10:55:09;;;;;;;27.10;14.30;;;;;;;-7.79;85.46;140390.58;106955;1259;25357;-60
2024/01/15 10:58:03;;;;;;;26.70;12.70;;;;;;;-7.79;85.57;140389.34;106937;1276;25408;-63
2024/01/15 11:00:50;;;;;;;28.30;14.70;;;;;;;-7.86;86.05;140373.55;106931;1259;25534;-64
2024/01/15 11:03:36;;;;;;;27.60;14.90;;;;;;;-7.93;86.44;140354.80;106829;1266;25348;-64
2024/01/15 11:06:24;;;;;;;28.00;14.50;;;;;;;-7.98;87.25;140343.70;106991;1258;25424;-63
2024/01/15 11:09:10;;;;;;;26.10;14.90;;;;;;;-8.00;87.32;140338.77;106916;1270;25497;-64
2024/01/15 11:12:11;;;;;;;23.50;13.40;;;;;;;-7.99;87.83;140339.75;106948;1266;25401;-60
2024/01/15 11:15:09;;;;;;;29.90;16.20;;;;;;;-7.95;88.05;140352.08;106929;1266;25415;-61
2024/01/15 11:18:05;;;;;;;28.70;16.40;;;;;;;-7.90;88.18;140362.92;106967;1276;25353;-65
2024/01/15 11:21:14;;;;;;;30.70;16.30;;;;;;;-7.88;88.26;140367.39;106934;1266;25462;-64
2024/01/15 11:24:01;;;;;;;43.70;21.90;;;;;;;-7.87;88.60;140370.83;106903;1272;25363;-63
2024/01/15 11:26:47;;;;;;;45.50;22.20;;;;;;;-7.85;89.00;140375.28;108757;1261;23333;-62
2024/01/15 11:29:35;;;;;;;34.10;18.10;;;;;;;-7.84;88.69;140377.50;107288;1259;25155;-64
2024/01/15 11:32:33;;;;;;;34.30;18.00;;;;;;;-7.86;88.64;140373.31;107303;1260;25365;-63
2024/01/15 11:35:19;;;;;;;33.80;17.30;;;;;;;-7.84;88.41;140378.73;108004;1260;22447;-62
2024/01/15 11:38:06;;;;;;;28.90;14.40;;;;;;;-7.82;88.33;140383.44;107494;1267;23428;-64
2024/01/15 11:40:52;;;;;;;24.90;13.50;;;;;;;-7.78;88.04;140391.33;107534;1259;25487;-61
2024/01/15 11:43:37;;;;;;;23.30;13.60;;;;;;;-7.75;87.86;140399.22;107340;1257;25392;-60
2024/01/15 11:46:30;;;;;;;22.20;13.70;;;;;;;-7.72;87.79;140407.11;107535;1265;25470;-61
2024/01/15 11:49:31;;;;;;;21.80;12.00;;;;;;;-7.68;87.72;140416.25;107719;1257;25334;-63
2024/01/15 11:52:19;;;;;;;20.90;12.40;;;;;;;-7.67;87.49;140418.95;107391;1259;23311;-60
2024/01/15 11:55:14;;;;;;;29.30;16.60;;;;;;;-7.71;87.36;140408.11;107320;1261;25396;-64
2024/01/15 11:58:02;;;;;;;32.90;16.70;;;;;;;-7.79;87.75;140389.59;107971;1259;23252;-64
2024/01/15 12:00:51;;;;;;;30.00;15.60;;;;;;;-7.88;87.99;140368.38;107732;1263;25424;-62
2024/01/15 12:03:36;;;;;;;28.70;14.60;;;;;;;-7.92;88.11;140357.75;107562;1260;25337;-61
2024/01/15 12:06:23;;;;;;;25.00;14.40;;;;;;;-7.93;87.76;140354.81;108509;1256;23321;-61
2024/01/15 12:09:09;;;;;;;27.10;14.70;;;;;;;-7.96;87.54;140348.88;108013;1263;24201;-62
2024/01/15 12:12:07;;;;;;;29.10;15.70;;;;;;;-7.99;87.61;140340.72;107596;1256;25407;-63
2024/01/15 12:14:53;;;;;;;28.30;15.40;;;;;;;-8.04;87.58;140330.13;107472;1260;23334;-61
2024/01/15 12:17:39;;;;;;;29.00;16.40;;;;;;;-8.07;87.70;140322.47;107989;1259;23270;-64
2024/01/15 12:20:26;;;;;;;26.60;14.20;;;;;;;-8.08;88.21;140319.52;107682;1263;25331;-64